Terminal Aerodrome Forecast
Issued by NWS Sterling, VA

Home | Current Version | Previous Version | Text Only | Print | Product List | Glossary On
Versions: 1 2 3 4 5 6 7 8 9 10 11 12 13 14 15 16 17 18 19 20 21
318
FTUS41 KLWX 310531
TAFIAD
TAF
KIAD 310531Z 3106/0112 00000KT P6SM FEW050
     FM311300 20005KT P6SM SCT050
     FM312100 19005KT P6SM VCSH BKN050
     FM011100 34004KT P6SM VCSH OVC045=

USA.gov is the U.S. government's official web portal to all federal, state and local government web resources and services.